createdAt,value
2017-07-15T00:01:54.453Z,14.66
2017-07-15T00:04:20.377Z,14.76
2017-07-15T00:06:46.214Z,14.62
2017-07-15T00:09:12.100Z,14.66
2017-07-15T00:11:38.107Z,14.74
2017-07-15T00:14:03.944Z,14.57
2017-07-15T00:16:30.397Z,14.74
2017-07-15T00:18:56.305Z,14.63
2017-07-15T00:21:22.235Z,14.56
2017-07-15T00:23:48.152Z,14.44
2017-07-15T00:26:13.988Z,14.37
2017-07-15T00:28:39.912Z,14.47
2017-07-15T00:31:05.808Z,14.52
2017-07-15T00:33:31.657Z,14.45
2017-07-15T00:35:57.564Z,14.58
2017-07-15T00:38:24.280Z,14.47
2017-07-15T00:40:50.165Z,14.34
2017-07-15T00:43:16.007Z,14.50
2017-07-15T00:45:41.845Z,14.33
2017-07-15T00:48:07.872Z,14.35
2017-07-15T00:50:33.777Z,14.28
2017-07-15T00:52:59.732Z,14.35
2017-07-15T00:55:25.618Z,14.45
2017-07-15T00:57:51.441Z,14.52
2017-07-15T01:00:17.329Z,14.43
2017-07-15T01:02:43.157Z,14.34
2017-07-15T01:05:09.024Z,14.37
2017-07-15T01:07:34.920Z,14.31
2017-07-15T01:10:00.755Z,14.17
2017-07-15T01:12:26.640Z,14.26
2017-07-15T01:14:52.483Z,14.23
2017-07-15T01:17:18.401Z,14.21
2017-07-15T01:19:44.401Z,13.89
2017-07-15T01:22:10.244Z,14.05
2017-07-15T01:24:36.127Z,13.83
2017-07-15T01:27:01.954Z,14.02
2017-07-15T01:29:27.796Z,14.00
2017-07-15T01:31:53.743Z,14.13
2017-07-15T01:34:19.582Z,14.20
2017-07-15T01:36:45.451Z,14.07
2017-07-15T01:39:11.385Z,14.08
2017-07-15T01:41:37.224Z,14.07
2017-07-15T01:44:03.109Z,13.81
2017-07-15T01:46:29.032Z,14.14
2017-07-15T01:48:54.872Z,14.00
2017-07-15T01:51:20.814Z,14.23
2017-07-15T01:53:46.718Z,14.20
2017-07-15T01:56:12.599Z,14.09
2017-07-15T01:58:38.544Z,14.23
2017-07-15T02:01:04.503Z,14.14
2017-07-15T02:03:30.382Z,13.89
2017-07-15T02:05:56.312Z,13.94
2017-07-15T02:08:22.254Z,14.09
2017-07-15T02:10:48.076Z,13.84
2017-07-15T02:13:13.892Z,14.02
2017-07-15T02:15:39.814Z,14.17
2017-07-15T02:18:05.807Z,14.10
2017-07-15T02:20:31.724Z,14.10
2017-07-15T02:22:57.583Z,14.10
2017-07-15T02:25:23.458Z,14.06
2017-07-15T02:27:49.499Z,14.16
2017-07-15T02:30:15.458Z,14.14
2017-07-15T02:32:41.287Z,14.03
2017-07-15T02:35:08.101Z,14.07
2017-07-15T02:37:33.970Z,14.20
2017-07-15T02:39:59.829Z,14.30
2017-07-15T02:42:25.763Z,14.28
2017-07-15T02:44:51.618Z,14.26
2017-07-15T02:47:17.677Z,14.30
2017-07-15T02:49:43.626Z,14.20
2017-07-15T02:52:09.450Z,14.07
2017-07-15T02:54:35.320Z,14.23
2017-07-15T02:57:01.167Z,14.17
2017-07-15T02:59:27.151Z,14.23
2017-07-15T03:01:53.025Z,14.07
2017-07-15T03:04:18.901Z,13.90
2017-07-15T03:06:44.765Z,14.13
2017-07-15T03:09:10.613Z,14.07
2017-07-15T03:11:36.482Z,13.94
2017-07-15T03:14:02.397Z,13.83
2017-07-15T03:16:28.240Z,13.71
2017-07-15T03:18:54.165Z,13.85
2017-07-15T03:21:20.060Z,13.84
2017-07-15T03:23:45.965Z,13.74
2017-07-15T03:26:11.805Z,13.83
2017-07-15T03:28:37.721Z,13.85
2017-07-15T03:31:03.681Z,14.08
2017-07-15T03:33:29.568Z,13.89
2017-07-15T03:35:55.440Z,13.95
2017-07-15T03:38:21.299Z,13.92
2017-07-15T03:40:47.212Z,13.95
2017-07-15T03:43:14.082Z,14.04
2017-07-15T03:45:39.895Z,14.00
2017-07-15T03:48:05.712Z,14.08
2017-07-15T03:50:31.565Z,13.83
2017-07-15T03:52:57.408Z,13.97
2017-07-15T03:55:23.423Z,14.05
2017-07-15T03:57:49.249Z,14.13
2017-07-15T04:00:15.238Z,14.16
2017-07-15T04:02:41.054Z,14.02
2017-07-15T04:05:06.859Z,13.99
2017-07-15T04:07:32.699Z,14.01
2017-07-15T04:09:58.531Z,14.12
2017-07-15T04:12:24.382Z,14.02
2017-07-15T04:14:50.183Z,14.03
2017-07-15T04:17:15.965Z,14.22
2017-07-15T04:19:41.824Z,14.26
2017-07-15T04:22:07.640Z,14.30
2017-07-15T04:24:33.457Z,14.17
2017-07-15T04:26:59.290Z,14.25
2017-07-15T04:29:25.246Z,14.31
2017-07-15T04:31:51.115Z,14.45
2017-07-15T04:34:16.929Z,14.21
2017-07-15T04:36:42.766Z,14.24
2017-07-15T04:39:08.570Z,14.22
2017-07-15T04:41:34.417Z,14.19
2017-07-15T04:44:00.325Z,14.19
2017-07-15T04:46:26.155Z,14.07
2017-07-15T04:48:52.006Z,14.15
2017-07-15T04:51:17.841Z,14.18
2017-07-15T04:53:43.648Z,14.22
2017-07-15T04:56:09.481Z,14.22
2017-07-15T04:58:35.313Z,14.38
2017-07-15T05:01:01.272Z,14.31
2017-07-15T05:03:27.197Z,14.24
2017-07-15T05:05:53.096Z,14.42
2017-07-15T05:08:19.008Z,14.36
2017-07-15T05:10:44.843Z,14.47
2017-07-15T05:13:10.666Z,14.63
2017-07-15T05:15:36.695Z,14.60
2017-07-15T05:18:02.746Z,14.45
2017-07-15T05:20:28.721Z,14.67
2017-07-15T05:23:10.539Z,14.72
2017-07-15T05:25:36.465Z,14.91
2017-07-15T05:28:02.325Z,14.61
2017-07-15T05:30:28.189Z,15.11
2017-07-15T05:32:54.002Z,15.02
2017-07-15T05:35:19.887Z,15.10
2017-07-15T05:37:45.827Z,15.26
2017-07-15T05:40:11.662Z,15.34
2017-07-15T05:42:37.491Z,15.24
2017-07-15T05:45:03.384Z,15.17
2017-07-15T05:47:29.313Z,15.03
2017-07-15T05:49:55.141Z,14.99
2017-07-15T05:52:20.962Z,15.08
2017-07-15T05:54:46.962Z,15.37
2017-07-15T05:57:12.763Z,15.07
2017-07-15T05:59:38.620Z,15.53
2017-07-15T06:02:04.662Z,15.21
2017-07-15T06:04:30.554Z,15.28
2017-07-15T06:06:56.467Z,14.97
2017-07-15T06:09:22.523Z,14.98
2017-07-15T06:11:48.435Z,14.97
2017-07-15T06:14:14.293Z,15.14
2017-07-15T06:16:40.181Z,15.18
2017-07-15T06:19:06.098Z,15.17
2017-07-15T06:21:31.942Z,15.38
2017-07-15T06:23:57.753Z,15.91
2017-07-15T06:26:23.538Z,15.96
2017-07-15T06:28:49.377Z,16.13
2017-07-15T06:31:15.187Z,16.00
2017-07-15T06:33:41.038Z,15.57
2017-07-15T06:36:06.863Z,16.10
2017-07-15T06:38:32.706Z,16.09
2017-07-15T06:40:58.507Z,16.16
2017-07-15T06:43:24.317Z,16.38
2017-07-15T06:45:50.213Z,16.51
2017-07-15T06:48:16.024Z,16.30
2017-07-15T06:50:41.983Z,17.17
2017-07-15T06:53:07.787Z,16.84
2017-07-15T06:55:33.697Z,17.19
2017-07-15T06:57:59.634Z,17.19
2017-07-15T07:00:25.490Z,16.75
2017-07-15T07:02:51.348Z,17.06
2017-07-15T07:05:17.342Z,17.27
2017-07-15T07:07:43.143Z,17.87
2017-07-15T07:10:08.985Z,18.10
2017-07-15T07:12:34.805Z,17.73
2017-07-15T07:15:00.676Z,17.60
2017-07-15T07:17:33.413Z,18.17
2017-07-15T07:19:59.261Z,18.80
2017-07-15T07:22:25.085Z,18.45
2017-07-15T07:24:51.045Z,18.67
2017-07-15T07:27:16.894Z,18.98
2017-07-15T07:29:42.711Z,19.12
2017-07-15T07:32:08.511Z,18.76
2017-07-15T07:34:34.329Z,18.16
2017-07-15T07:37:00.123Z,18.12
2017-07-15T07:39:25.966Z,18.08
2017-07-15T07:41:51.803Z,17.83
2017-07-15T07:44:17.609Z,18.58
2017-07-15T07:46:43.474Z,17.94
2017-07-15T07:49:09.286Z,17.52
2017-07-15T07:51:35.186Z,17.70
2017-07-15T07:54:07.993Z,17.69
2017-07-15T07:56:33.849Z,17.70
2017-07-15T07:58:59.689Z,17.65
2017-07-15T08:01:25.624Z,17.97
2017-07-15T08:03:51.481Z,17.82
2017-07-15T08:06:17.293Z,18.30
2017-07-15T08:08:43.135Z,18.11
2017-07-15T08:11:08.944Z,18.39
2017-07-15T08:13:34.809Z,17.60
2017-07-15T08:16:00.659Z,17.68
2017-07-15T08:18:26.582Z,17.24
2017-07-15T08:20:52.547Z,16.85
2017-07-15T08:23:18.399Z,17.46
2017-07-15T08:25:44.219Z,18.39
2017-07-15T08:28:10.052Z,18.99
2017-07-15T08:30:35.880Z,19.31
2017-07-15T08:33:01.811Z,19.72
2017-07-15T08:35:27.624Z,19.65
2017-07-15T08:37:53.531Z,19.35
2017-07-15T08:40:19.371Z,19.29
2017-07-15T08:42:45.190Z,19.45
2017-07-15T08:45:11.048Z,19.46
2017-07-15T08:47:36.916Z,19.26
2017-07-15T08:50:02.730Z,19.39
2017-07-15T08:52:28.635Z,20.33
2017-07-15T08:54:54.479Z,20.50
2017-07-15T08:57:20.357Z,21.05
2017-07-15T08:59:46.322Z,21.54
2017-07-15T09:02:12.180Z,21.52
2017-07-15T09:04:38.233Z,21.16
2017-07-15T09:07:04.042Z,21.64
2017-07-15T09:09:29.891Z,21.60
2017-07-15T09:11:55.810Z,21.31
2017-07-15T09:14:21.761Z,20.01
2017-07-15T09:16:47.653Z,20.49
2017-07-15T09:19:13.614Z,20.89
2017-07-15T09:21:39.479Z,20.77
2017-07-15T09:24:05.321Z,19.98
2017-07-15T09:26:31.170Z,19.95
2017-07-15T09:28:56.987Z,20.27
2017-07-15T09:31:22.847Z,20.05
2017-07-15T09:33:48.664Z,20.22
2017-07-15T09:36:14.503Z,20.70
2017-07-15T09:38:40.553Z,20.40
2017-07-15T09:41:06.353Z,21.70
2017-07-15T09:43:32.288Z,21.43
2017-07-15T09:45:58.199Z,21.00
2017-07-15T09:48:24.037Z,20.44
2017-07-15T09:50:49.951Z,21.14
2017-07-15T09:53:15.817Z,22.21
2017-07-15T09:55:41.670Z,22.16
2017-07-15T09:58:08.808Z,22.87
2017-07-15T10:00:34.711Z,22.92
2017-07-15T10:03:00.559Z,23.61
2017-07-15T10:05:26.571Z,22.77
2017-07-15T10:07:52.503Z,21.71
2017-07-15T10:10:18.419Z,21.31
2017-07-15T10:12:44.392Z,21.49
2017-07-15T10:15:10.246Z,21.77
2017-07-15T10:17:36.204Z,21.21
2017-07-15T10:20:02.046Z,21.21
2017-07-15T10:22:27.951Z,21.34
2017-07-15T10:24:53.974Z,21.67
2017-07-15T10:27:19.931Z,21.39
2017-07-15T10:29:45.749Z,22.03
2017-07-15T10:32:11.582Z,21.55
2017-07-15T10:34:37.444Z,21.25
2017-07-15T10:37:03.270Z,21.27
2017-07-15T10:39:29.198Z,21.75
2017-07-15T10:41:55.031Z,23.03
2017-07-15T10:44:20.860Z,23.80
2017-07-15T10:46:46.722Z,24.70
2017-07-15T10:49:12.730Z,23.28
2017-07-15T10:51:38.692Z,23.89
2017-07-15T10:54:04.574Z,23.49
2017-07-15T10:56:30.536Z,23.56
2017-07-15T10:58:56.442Z,24.13
2017-07-15T11:01:22.341Z,22.99
2017-07-15T11:03:48.810Z,21.76
2017-07-15T11:06:14.673Z,21.53
2017-07-15T11:08:40.494Z,23.07
2017-07-15T11:11:06.568Z,23.21
2017-07-15T11:13:32.466Z,23.37
2017-07-15T11:15:58.379Z,23.20
2017-07-15T11:18:24.250Z,23.64
2017-07-15T11:20:50.281Z,23.27
2017-07-15T11:23:16.116Z,23.78
2017-07-15T11:25:41.947Z,22.33
2017-07-15T11:28:07.808Z,22.25
2017-07-15T11:30:33.639Z,22.44
2017-07-15T11:32:59.547Z,22.05
2017-07-15T11:35:25.370Z,22.13
2017-07-15T11:37:51.201Z,21.80
2017-07-15T11:40:17.077Z,22.66
2017-07-15T11:42:42.993Z,23.15
2017-07-15T11:45:08.855Z,23.36
2017-07-15T11:47:34.682Z,23.70
2017-07-15T11:50:00.707Z,22.98
2017-07-15T11:52:26.551Z,23.75
2017-07-15T11:54:52.379Z,23.05
2017-07-15T11:57:18.224Z,24.05
2017-07-15T11:59:44.168Z,23.97
2017-07-15T12:02:10.208Z,23.50
2017-07-15T12:04:36.094Z,23.23
2017-07-15T12:07:01.931Z,25.22
2017-07-15T12:09:27.851Z,25.11
2017-07-15T12:11:53.757Z,24.06
2017-07-15T12:14:19.702Z,22.89
2017-07-15T12:16:45.608Z,23.47
2017-07-15T12:19:11.559Z,23.91
2017-07-15T12:21:37.442Z,25.59
2017-07-15T12:24:03.335Z,25.21
2017-07-15T12:26:29.165Z,25.02
2017-07-15T12:28:54.992Z,25.98
2017-07-15T12:31:20.963Z,25.47
2017-07-15T12:33:46.821Z,25.67
2017-07-15T12:36:12.681Z,25.83
2017-07-15T12:38:38.580Z,25.32
2017-07-15T12:41:04.429Z,23.89
2017-07-15T12:43:30.300Z,22.39
2017-07-15T12:45:56.277Z,23.09
2017-07-15T12:48:22.115Z,23.08
2017-07-15T12:50:47.990Z,23.43
2017-07-15T12:53:14.004Z,23.46
2017-07-15T12:55:39.885Z,23.08
2017-07-15T12:58:06.949Z,24.04
2017-07-15T13:00:32.893Z,24.51
2017-07-15T13:02:58.937Z,24.05
2017-07-15T13:05:24.937Z,23.30
2017-07-15T13:07:50.896Z,23.55
2017-07-15T13:10:16.734Z,23.39
2017-07-15T13:12:43.151Z,23.38
2017-07-15T13:15:09.028Z,23.20
2017-07-15T13:17:35.084Z,23.14
2017-07-15T13:20:00.916Z,24.56
2017-07-15T13:22:26.798Z,25.91
2017-07-15T13:24:52.753Z,24.55
2017-07-15T13:27:18.729Z,24.48
2017-07-15T13:29:44.761Z,23.35
2017-07-15T13:32:10.647Z,23.75
2017-07-15T13:34:36.518Z,24.37
2017-07-15T13:37:02.428Z,25.01
2017-07-15T13:39:28.433Z,24.12
2017-07-15T13:41:54.419Z,24.26
2017-07-15T13:44:20.254Z,24.10
2017-07-15T13:46:46.088Z,25.62
2017-07-15T13:49:12.018Z,26.45
2017-07-15T13:51:37.848Z,26.69
2017-07-15T13:54:03.665Z,27.27
2017-07-15T13:56:29.532Z,28.07
2017-07-15T13:58:55.383Z,26.22
2017-07-15T14:01:21.280Z,24.88
2017-07-15T14:03:47.129Z,23.84
2017-07-15T14:06:13.023Z,23.23
2017-07-15T14:08:39.421Z,23.70
2017-07-15T14:11:05.281Z,23.05
2017-07-15T14:13:31.353Z,23.64
2017-07-15T14:15:57.344Z,24.09
2017-07-15T14:18:23.223Z,23.70
2017-07-15T14:20:49.115Z,23.99
2017-07-15T14:23:14.987Z,24.24
2017-07-15T14:25:40.827Z,23.99
2017-07-15T14:28:06.689Z,24.38
2017-07-15T14:30:32.514Z,23.74
2017-07-15T14:32:58.536Z,23.95
2017-07-15T14:35:24.349Z,24.00
2017-07-15T14:37:50.243Z,24.00
2017-07-15T14:40:16.105Z,23.83
2017-07-15T14:42:41.918Z,23.34
2017-07-15T14:45:07.806Z,23.69
2017-07-15T14:47:33.628Z,23.32
2017-07-15T14:49:59.564Z,23.19
2017-07-15T14:52:25.421Z,22.90
2017-07-15T14:54:51.238Z,23.25
2017-07-15T14:57:17.107Z,22.77
2017-07-15T14:59:43.012Z,23.15
2017-07-15T15:02:08.915Z,24.21
2017-07-15T15:04:34.776Z,24.79
2017-07-15T15:07:00.660Z,26.06
2017-07-15T15:09:26.477Z,26.02
2017-07-15T15:11:52.436Z,24.95
2017-07-15T15:14:18.244Z,24.15
2017-07-15T15:16:44.059Z,24.03
2017-07-15T15:19:09.998Z,23.15
2017-07-15T15:21:35.836Z,23.49
2017-07-15T15:24:01.718Z,23.47
2017-07-15T15:26:27.773Z,23.49
2017-07-15T15:28:53.625Z,23.63
2017-07-15T15:31:19.496Z,23.68
2017-07-15T15:33:45.310Z,23.22
2017-07-15T15:36:11.233Z,23.73
2017-07-15T15:38:37.137Z,23.55
2017-07-15T15:41:02.992Z,23.13
2017-07-15T15:43:28.892Z,23.04
2017-07-15T15:45:54.805Z,23.19
2017-07-15T15:48:20.696Z,22.87
2017-07-15T15:50:46.523Z,22.45
2017-07-15T15:53:12.503Z,22.62
2017-07-15T15:55:38.370Z,22.88
2017-07-15T15:58:05.821Z,22.30
2017-07-15T16:00:31.804Z,22.34
2017-07-15T16:02:57.667Z,22.13
2017-07-15T16:05:23.620Z,22.03
2017-07-15T16:07:49.459Z,22.40
2017-07-15T16:10:15.320Z,22.46
2017-07-15T16:12:41.147Z,22.40
2017-07-15T16:15:07.074Z,22.53
2017-07-15T16:17:32.913Z,22.03
2017-07-15T16:19:58.807Z,21.51
2017-07-15T16:22:24.783Z,21.97
2017-07-15T16:24:50.682Z,21.75
2017-07-15T16:27:16.684Z,21.79
2017-07-15T16:29:43.008Z,22.14
2017-07-15T16:32:08.859Z,22.15
2017-07-15T16:34:34.729Z,22.32
2017-07-15T16:37:00.593Z,21.65
2017-07-15T16:39:26.517Z,21.70
2017-07-15T16:41:52.415Z,22.21
2017-07-15T16:44:18.314Z,22.03
2017-07-15T16:46:44.181Z,21.84
2017-07-15T16:49:10.003Z,21.70
2017-07-15T16:51:36.101Z,21.31
2017-07-15T16:54:01.931Z,21.28
2017-07-15T16:56:27.885Z,21.44
2017-07-15T16:58:53.763Z,21.40
2017-07-15T17:01:19.692Z,21.29
2017-07-15T17:03:45.537Z,21.33
2017-07-15T17:06:11.339Z,21.08
2017-07-15T17:08:37.201Z,20.86
2017-07-15T17:11:03.045Z,21.21
2017-07-15T17:13:28.968Z,21.22
2017-07-15T17:15:54.895Z,21.05
2017-07-15T17:18:20.821Z,21.21
2017-07-15T17:20:46.695Z,21.21
2017-07-15T17:23:12.577Z,21.13
2017-07-15T17:25:38.489Z,21.09
2017-07-15T17:28:04.313Z,20.85
2017-07-15T17:30:30.158Z,20.62
2017-07-15T17:32:56.055Z,21.20
2017-07-15T17:35:22.062Z,21.15
2017-07-15T17:37:47.968Z,21.17
2017-07-15T17:40:13.845Z,21.32
2017-07-15T17:42:39.673Z,21.17
2017-07-15T17:45:05.494Z,21.10
2017-07-15T17:47:31.447Z,21.00
2017-07-15T17:49:57.273Z,20.86
2017-07-15T17:52:23.156Z,20.80
2017-07-15T17:54:49.006Z,20.88
2017-07-15T17:57:14.957Z,20.66
2017-07-15T17:59:40.773Z,20.16
2017-07-15T18:02:06.629Z,20.47
2017-07-15T18:04:32.490Z,20.65
2017-07-15T18:06:58.329Z,20.60
2017-07-15T18:09:24.224Z,20.36
2017-07-15T18:11:50.102Z,20.45
2017-07-15T18:14:15.973Z,20.32
2017-07-15T18:16:41.942Z,20.05
2017-07-15T18:19:07.800Z,20.06
2017-07-15T18:21:33.780Z,20.24
2017-07-15T18:23:59.585Z,20.01
2017-07-15T18:26:25.390Z,20.17
2017-07-15T18:28:51.263Z,20.10
2017-07-15T18:31:17.090Z,20.15
2017-07-15T18:33:42.908Z,20.06
2017-07-15T18:36:08.791Z,20.01
2017-07-15T18:38:34.616Z,19.92
2017-07-15T18:41:07.318Z,19.78
2017-07-15T18:43:33.453Z,19.84
2017-07-15T18:45:59.312Z,19.57
2017-07-15T18:48:25.145Z,19.63
2017-07-15T18:50:51.007Z,19.67
2017-07-15T18:53:16.813Z,19.48
2017-07-15T18:55:42.662Z,19.41
2017-07-15T18:58:09.241Z,19.35
2017-07-15T19:00:42.157Z,19.18
2017-07-15T19:03:08.026Z,19.10
2017-07-15T19:05:33.847Z,18.89
2017-07-15T19:07:59.697Z,19.01
2017-07-15T19:10:25.545Z,18.67
2017-07-15T19:12:51.390Z,18.56
2017-07-15T19:15:17.388Z,18.43
2017-07-15T19:17:43.253Z,18.32
2017-07-15T19:20:09.128Z,18.09
2017-07-15T19:22:35.057Z,18.00
2017-07-15T19:25:01.445Z,18.04
2017-07-15T19:27:27.304Z,17.92
2017-07-15T19:29:53.246Z,17.86
2017-07-15T19:32:19.179Z,17.73
2017-07-15T19:34:45.985Z,17.58
2017-07-15T19:37:11.796Z,17.55
2017-07-15T19:39:37.667Z,17.49
2017-07-15T19:42:03.562Z,17.23
2017-07-15T19:44:29.459Z,17.36
2017-07-15T19:46:55.522Z,17.25
2017-07-15T19:49:21.537Z,17.03
2017-07-15T19:51:47.455Z,16.97
2017-07-15T19:54:13.388Z,16.74
2017-07-15T19:56:39.228Z,16.67
2017-07-15T19:59:05.269Z,16.62
2017-07-15T20:01:31.140Z,16.56
2017-07-15T20:03:57.099Z,16.56
2017-07-15T20:06:22.989Z,16.52
2017-07-15T20:08:48.901Z,16.42
2017-07-15T20:11:14.923Z,16.25
2017-07-15T20:13:40.902Z,16.30
2017-07-15T20:16:06.753Z,16.16
2017-07-15T20:18:32.692Z,16.25
2017-07-15T20:20:58.577Z,16.22
2017-07-15T20:23:24.619Z,16.12
2017-07-15T20:25:50.623Z,16.09
2017-07-15T20:28:16.452Z,16.14
2017-07-15T20:30:42.404Z,15.90
2017-07-15T20:33:08.303Z,15.65
2017-07-15T20:35:34.240Z,15.78
2017-07-15T20:38:00.099Z,15.61
2017-07-15T20:40:25.978Z,15.52
2017-07-15T20:42:51.972Z,15.56
2017-07-15T20:45:17.827Z,15.62
2017-07-15T20:47:43.680Z,15.36
2017-07-15T20:50:09.556Z,15.02
2017-07-15T20:52:41.424Z,15.25
2017-07-15T20:55:07.473Z,15.28
2017-07-15T20:57:33.403Z,15.20
2017-07-15T20:59:59.250Z,15.13
2017-07-15T21:02:25.123Z,15.17
2017-07-15T21:04:50.977Z,15.01
2017-07-15T21:07:16.898Z,14.95
2017-07-15T21:09:42.945Z,14.89
2017-07-15T21:12:08.795Z,15.02
2017-07-15T21:14:34.663Z,14.87
2017-07-15T21:17:00.524Z,14.91
2017-07-15T21:19:26.502Z,14.55
2017-07-15T21:21:52.363Z,14.69
2017-07-15T21:24:18.225Z,14.68
2017-07-15T21:26:44.109Z,14.87
2017-07-15T21:29:10.024Z,14.78
2017-07-15T21:31:35.956Z,14.60
2017-07-15T21:34:01.904Z,14.74
2017-07-15T21:36:27.777Z,14.60
2017-07-15T21:38:53.727Z,14.57
2017-07-15T21:41:19.613Z,14.16
2017-07-15T21:43:45.465Z,14.58
2017-07-15T21:46:11.363Z,14.50
2017-07-15T21:48:37.755Z,14.27
2017-07-15T21:51:03.660Z,14.46
2017-07-15T21:53:29.496Z,14.29
2017-07-15T21:55:55.381Z,14.29
2017-07-15T21:58:21.289Z,14.24
2017-07-15T22:00:47.181Z,14.01
2017-07-15T22:03:13.052Z,14.02
2017-07-15T22:05:38.953Z,14.07
2017-07-15T22:08:04.838Z,14.03
2017-07-15T22:10:30.673Z,14.11
2017-07-15T22:12:56.597Z,14.01
2017-07-15T22:15:22.485Z,13.94
2017-07-15T22:17:48.565Z,13.95
2017-07-15T22:20:14.872Z,13.88
2017-07-15T22:22:40.726Z,13.88
2017-07-15T22:25:06.592Z,13.88
2017-07-15T22:27:32.432Z,13.86
2017-07-15T22:29:58.343Z,13.83
2017-07-15T22:32:24.198Z,13.62
2017-07-15T22:34:53.871Z,13.74
2017-07-15T22:37:19.784Z,13.50
2017-07-15T22:39:45.625Z,13.67
2017-07-15T22:42:11.602Z,13.67
2017-07-15T22:44:37.672Z,13.56
2017-07-15T22:47:03.584Z,13.57
2017-07-15T22:49:29.499Z,13.50
2017-07-15T22:51:55.472Z,13.51
2017-07-15T22:54:21.332Z,13.54
2017-07-15T22:56:47.176Z,13.48
2017-07-15T22:59:14.769Z,13.45
2017-07-15T23:01:40.650Z,13.42
2017-07-15T23:04:06.553Z,13.49
2017-07-15T23:06:32.465Z,13.39
2017-07-15T23:08:58.300Z,13.37
2017-07-15T23:11:24.228Z,13.26
2017-07-15T23:13:50.101Z,13.34
2017-07-15T23:16:15.938Z,13.35
2017-07-15T23:18:43.793Z,13.37
2017-07-15T23:21:09.648Z,13.38
2017-07-15T23:23:36.220Z,13.43
2017-07-15T23:26:02.870Z,13.33
2017-07-15T23:28:28.743Z,13.32
2017-07-15T23:30:54.719Z,13.32
2017-07-15T23:33:20.570Z,13.26
2017-07-15T23:35:46.536Z,13.39
2017-07-15T23:38:12.426Z,13.41
2017-07-15T23:40:38.347Z,13.29
2017-07-15T23:43:04.184Z,13.08
2017-07-15T23:45:30.052Z,13.09
2017-07-15T23:47:55.922Z,13.33
2017-07-15T23:50:21.943Z,13.32
2017-07-15T23:52:54.840Z,13.38
2017-07-15T23:55:20.730Z,13.35
2017-07-15T23:57:46.668Z,13.35
